Time;durP1;ratioP1;P1;durP2;ratioP2;P2;SDS_P1;SDS_P2;PMS_P1;PMS_P2;Temp;Humidity;BMP_temperature;BMP_pressure;BME280_temperature;BME280_humidity;BME280_pressure;Samples;Min_cycle;Max_cycle;Signal;HPM_P1;HPM_P2
2022/08/26 00:01:42;;;;;;;20.70;18.40;;;;;;;18.14;100.00;98788.61;105033;1270;60468;-71
2022/08/26 00:04:09;;;;;;;20.50;18.50;;;;;;;18.10;100.00;98790.32;105087;1270;61545;-71
2022/08/26 00:06:36;;;;;;;20.10;16.80;;;;;;;18.04;100.00;98789.09;105108;1270;60502;-71
2022/08/26 00:09:03;;;;;;;27.50;21.80;;;;;;;18.00;100.00;98788.42;105122;1270;61866;-71
2022/08/26 00:11:29;;;;;;;28.40;23.50;;;;;;;17.97;100.00;98787.63;105103;1270;60556;-71
2022/08/26 00:13:56;;;;;;;31.90;22.70;;;;;;;17.94;100.00;98790.23;105086;1270;60571;-71
2022/08/26 00:16:24;;;;;;;30.00;23.40;;;;;;;17.93;100.00;98791.08;105131;1270;60543;-71
2022/08/26 00:18:51;;;;;;;30.70;23.30;;;;;;;17.91;100.00;98786.21;105114;1270;74684;-71
2022/08/26 00:21:19;;;;;;;28.60;25.60;;;;;;;17.90;100.00;98781.92;105112;1270;69721;-71
2022/08/26 00:23:46;;;;;;;31.10;24.90;;;;;;;17.88;100.00;98781.36;105120;1270;74816;-71
2022/08/26 00:26:13;;;;;;;34.50;24.70;;;;;;;17.86;100.00;98775.25;104905;1273;60477;-70
2022/08/26 00:28:39;;;;;;;29.70;22.40;;;;;;;17.85;100.00;98777.02;105080;1270;60831;-70
2022/08/26 00:31:06;;;;;;;28.80;22.60;;;;;;;17.84;100.00;98777.52;105124;1270;74554;-71
2022/08/26 00:33:33;;;;;;;26.90;23.10;;;;;;;17.82;100.00;98776.18;104889;1271;68299;-71
2022/08/26 00:36:00;;;;;;;31.20;23.70;;;;;;;17.80;100.00;98773.89;104833;1271;60601;-74
2022/08/26 00:38:26;;;;;;;28.90;25.00;;;;;;;17.78;100.00;98773.16;105139;1270;60457;-73
2022/08/26 00:40:55;;;;;;;30.10;26.40;;;;;;;17.77;100.00;98776.52;105149;1270;60606;-71
2022/08/26 00:43:23;;;;;;;29.90;26.60;;;;;;;17.76;100.00;98771.58;104910;1273;74719;-71
2022/08/26 00:45:58;;;;;;;33.80;26.00;;;;;;;17.76;100.00;98772.13;104907;1271;66606;-72
2022/08/26 00:48:28;;;;;;;34.40;28.20;;;;;;;17.75;100.00;98771.48;105096;1270;72339;-71
2022/08/26 00:51:00;;;;;;;;;;;;;;;17.79;100.00;98776.65;105145;1270;60482;-72
2022/08/26 00:53:34;;;;;;;36.50;30.10;;;;;;;17.85;100.00;98773.25;105115;1270;60331;-72
2022/08/26 00:56:23;;;;;;;41.60;34.40;;;;;;;17.87;100.00;98775.36;105142;1270;75674;-72
2022/08/26 00:58:50;;;;;;;46.30;33.50;;;;;;;17.93;100.00;98772.58;105100;1270;70322;-72
2022/08/26 01:01:17;;;;;;;43.50;35.20;;;;;;;17.97;100.00;98771.64;104856;1271;73483;-71
2022/08/26 01:03:45;;;;;;;47.50;33.80;;;;;;;18.00;100.00;98777.45;104886;1273;60569;-71
2022/08/26 01:06:12;;;;;;;42.20;35.20;;;;;;;18.02;100.00;98774.88;104843;1271;61039;-71
2022/08/26 01:08:38;;;;;;;37.40;33.40;;;;;;;18.05;100.00;98773.20;105037;1270;75795;-72
2022/08/26 01:11:05;;;;;;;40.30;35.40;;;;;;;18.08;100.00;98773.59;105100;1270;60427;-72
2022/08/26 01:13:32;;;;;;;40.80;34.10;;;;;;;18.08;100.00;98774.66;104894;1271;73454;-71
2022/08/26 01:16:01;;;;;;;47.50;36.10;;;;;;;18.08;100.00;98774.09;105021;1270;60522;-70
2022/08/26 01:18:28;;;;;;;43.70;36.30;;;;;;;18.08;100.00;98773.58;105112;1271;61106;-71
2022/08/26 01:20:58;;;;;;;38.10;33.60;;;;;;;18.08;100.00;98776.78;105150;1270;75522;-72
2022/08/26 01:23:31;;;;;;;41.00;32.90;;;;;;;18.05;100.00;98777.31;105107;1270;69188;-71
2022/08/26 01:26:11;;;;;;;46.00;35.80;;;;;;;18.03;100.00;98779.51;105106;1270;73732;-71
2022/08/26 01:28:39;;;;;;;44.30;34.60;;;;;;;18.03;100.00;98774.65;105131;1270;61352;-72
2022/08/26 01:31:09;;;;;;;45.20;35.30;;;;;;;18.04;100.00;98771.50;105113;1270;61794;-73
2022/08/26 01:34:06;;;;;;;40.00;33.60;;;;;;;18.04;100.00;98770.46;105142;1270;74373;-72
2022/08/26 01:36:32;;;;;;;39.10;33.20;;;;;;;18.01;100.00;98772.49;105104;1271;69431;-71
2022/08/26 01:38:58;;;;;;;41.80;33.60;;;;;;;17.98;100.00;98775.63;105073;1270;60485;-72
2022/08/26 01:41:25;;;;;;;38.50;32.60;;;;;;;17.95;100.00;98770.23;105097;1270;60486;-73
2022/08/26 01:43:54;;;;;;;39.00;33.50;;;;;;;17.92;100.00;98770.01;105105;1270;60371;-71
2022/08/26 01:46:22;;;;;;;43.60;33.00;;;;;;;17.88;100.00;98770.72;105113;1271;75790;-71
2022/08/26 01:48:51;;;;;;;39.40;32.30;;;;;;;17.86;100.00;98767.71;105135;1270;71619;-72
2022/08/26 01:51:19;;;;;;;38.30;32.80;;;;;;;17.85;100.00;98768.91;105171;1270;74679;-71
2022/08/26 01:53:45;;;;;;;40.00;32.80;;;;;;;17.81;100.00;98762.29;105100;1270;60683;-70
2022/08/26 01:56:13;;;;;;;45.40;33.30;;;;;;;17.78;100.00;98760.42;105086;1271;60366;-71
2022/08/26 01:58:47;;;;;;;42.90;35.10;;;;;;;17.76;100.00;98757.37;105099;1270;75667;-71
2022/08/26 02:01:13;;;;;;;41.50;33.60;;;;;;;17.75;100.00;98761.05;105082;1270;70291;-72
2022/08/26 02:04:07;;;;;;;44.80;34.50;;;;;;;17.75;100.00;98763.98;105148;1270;73831;-71
2022/08/26 02:06:36;;;;;;;40.30;33.60;;;;;;;17.74;100.00;98762.23;104924;1271;61163;-72
2022/08/26 02:09:03;;;;;;;49.50;34.70;;;;;;;17.74;100.00;98765.49;104957;1271;62065;-72
2022/08/26 02:11:30;;;;;;;44.40;33.80;;;;;;;17.72;100.00;98763.02;105119;1270;74394;-71
2022/08/26 02:14:04;;;;;;;40.90;33.10;;;;;;;17.69;100.00;98767.38;105129;1270;69551;-71
2022/08/26 02:16:35;;;;;;;41.50;32.50;;;;;;;17.67;100.00;98764.96;105141;1270;74668;-71
2022/08/26 02:19:03;;;;;;;39.60;32.40;;;;;;;17.63;100.00;98764.65;105114;1271;60537;-71
2022/08/26 02:21:29;;;;;;;41.40;34.10;;;;;;;17.61;100.00;98762.27;104891;1270;61810;-71
2022/08/26 02:23:55;;;;;;;42.40;35.80;;;;;;;17.60;100.00;98760.05;105108;1270;75007;-72
2022/08/26 02:26:24;;;;;;;48.10;39.80;;;;;;;17.60;100.00;98758.42;105111;1271;60488;-70
2022/08/26 02:28:58;;;;;;;42.60;35.90;;;;;;;17.60;100.00;98756.27;105090;1270;74378;-70
2022/08/26 02:31:24;;;;;;;46.50;37.50;;;;;;;17.60;100.00;98759.90;104983;1270;60347;-72
2022/08/26 02:33:50;;;;;;;43.30;38.60;;;;;;;17.58;100.00;98763.66;105091;1270;60350;-71
2022/08/26 02:36:22;;;;;;;44.40;38.40;;;;;;;17.56;100.00;98760.60;105074;1270;60491;-72
2022/08/26 02:38:48;;;;;;;40.10;35.70;;;;;;;17.53;100.00;98760.19;105183;1270;69590;-70
2022/08/26 02:41:14;;;;;;;42.00;35.90;;;;;;;17.50;100.00;98759.38;105115;1271;60573;-71
2022/08/26 02:43:40;;;;;;;42.40;35.80;;;;;;;17.48;100.00;98760.73;104862;1271;60555;-70
2022/08/26 02:46:06;;;;;;;44.90;36.90;;;;;;;17.43;100.00;98759.77;105152;1270;60523;-70
2022/08/26 02:48:32;;;;;;;38.60;34.60;;;;;;;17.40;100.00;98759.17;105131;1271;60551;-73
2022/08/26 02:51:00;;;;;;;37.60;33.50;;;;;;;17.36;100.00;98758.88;105163;1271;60548;-71
2022/08/26 02:53:28;;;;;;;36.80;32.80;;;;;;;17.31;100.00;98760.05;105190;1270;60578;-72
2022/08/26 02:55:54;;;;;;;37.70;33.60;;;;;;;17.27;100.00;98756.98;104952;1272;61097;-71
2022/08/26 02:58:20;;;;;;;36.20;32.30;;;;;;;17.26;100.00;98756.81;105132;1271;60483;-75
2022/08/26 03:00:46;;;;;;;37.40;32.70;;;;;;;17.24;100.00;98754.98;104921;1271;60547;-73
2022/08/26 03:03:14;;;;;;;34.20;30.50;;;;;;;17.22;100.00;98751.45;105017;1271;60623;-71
2022/08/26 03:05:41;;;;;;;32.40;29.00;;;;;;;17.19;100.00;98751.20;105171;1270;73556;-71
2022/08/26 03:08:10;;;;;;;35.00;30.20;;;;;;;17.16;100.00;98752.21;105123;1271;60823;-71
2022/08/26 03:10:38;;;;;;;35.70;30.40;;;;;;;17.13;100.00;98751.98;105144;1271;60813;-71
2022/08/26 03:13:04;;;;;;;32.40;29.10;;;;;;;17.09;100.00;98757.36;105209;1271;75663;-72
2022/08/26 03:15:31;;;;;;;33.80;30.00;;;;;;;17.06;100.00;98758.34;105157;1271;60500;-73
2022/08/26 03:17:58;;;;;;;33.70;29.50;;;;;;;17.03;100.00;98758.33;104976;1271;74246;-71
2022/08/26 03:20:24;;;;;;;34.30;29.70;;;;;;;17.02;100.00;98758.42;105147;1271;61199;-71
2022/08/26 03:22:52;;;;;;;35.70;30.20;;;;;;;17.01;100.00;98760.27;105102;1271;60880;-71
2022/08/26 03:25:21;;;;;;;35.50;29.30;;;;;;;17.00;100.00;98756.98;105106;1271;75373;-71
2022/08/26 03:27:47;;;;;;;31.60;28.40;;;;;;;16.99;100.00;98758.45;105153;1271;70280;-73
2022/08/26 03:33:02;;;;;;;38.50;29.70;;;;;;;16.92;100.00;98758.10;105101;1271;60579;-71
2022/08/26 03:35:28;;;;;;;31.40;27.60;;;;;;;16.92;100.00;98750.27;105123;1270;60443;-73
2022/08/26 03:37:55;;;;;;;34.20;28.60;;;;;;;16.89;100.00;98748.54;105128;1271;75487;-72
2022/08/26 03:40:22;;;;;;;31.60;27.10;;;;;;;16.88;100.00;98751.46;104837;1271;60557;-71
2022/08/26 03:42:48;;;;;;;30.80;27.60;;;;;;;16.86;100.00;98749.67;105126;1271;74711;-70
2022/08/26 03:45:16;;;;;;;33.20;27.90;;;;;;;16.86;100.00;98754.05;105094;1270;60508;-72
2022/08/26 03:47:43;;;;;;;33.30;27.90;;;;;;;16.85;100.00;98753.20;105131;1270;62412;-72
2022/08/26 03:50:13;;;;;;;34.90;27.80;;;;;;;16.85;100.00;98753.41;105145;1270;75367;-71
2022/08/26 03:52:39;;;;;;;32.40;27.80;;;;;;;16.85;100.00;98751.95;105124;1271;70707;-71
2022/08/26 03:55:07;;;;;;;31.90;28.70;;;;;;;16.86;100.00;98747.39;105104;1271;60536;-72
2022/08/26 03:57:33;;;;;;;34.80;28.30;;;;;;;16.87;100.00;98745.52;105172;1271;61136;-72
2022/08/26 03:59:59;;;;;;;30.50;27.20;;;;;;;16.89;100.00;98749.27;105072;1270;60933;-69
2022/08/26 04:02:26;;;;;;;33.60;26.50;;;;;;;16.91;100.00;98747.45;105101;1271;60600;-70
2022/08/26 04:04:52;;;;;;;34.00;26.70;;;;;;;16.93;100.00;98750.15;105011;1271;60504;-71
2022/08/26 04:07:18;;;;;;;35.10;26.70;;;;;;;16.94;100.00;98750.62;105057;1271;60577;-72
2022/08/26 04:09:44;;;;;;;32.20;27.50;;;;;;;16.96;100.00;98744.95;105006;1271;60481;-71
2022/08/26 04:12:11;;;;;;;34.00;27.90;;;;;;;17.05;100.00;98750.95;105085;1271;60456;-71
2022/08/26 04:14:37;;;;;;;29.80;26.80;;;;;;;17.20;100.00;98749.25;105104;1271;60602;-71
2022/08/26 04:17:04;;;;;;;30.30;25.40;;;;;;;17.40;100.00;98745.92;104846;1274;60517;-71
2022/08/26 04:19:31;;;;;;;31.50;23.90;;;;;;;17.61;100.00;98745.70;105045;1271;60569;-72
2022/08/26 04:21:57;;;;;;;29.20;21.80;;;;;;;17.82;100.00;98742.21;104882;1274;60582;-72
2022/08/26 04:24:25;;;;;;;25.30;21.70;;;;;;;18.05;100.00;98744.58;105038;1271;60821;-71
2022/08/26 04:26:52;;;;;;;28.60;20.10;;;;;;;18.25;100.00;98740.02;105036;1271;75657;-71
2022/08/26 04:29:22;;;;;;;22.50;19.90;;;;;;;18.51;100.00;98740.27;105012;1272;70285;-72
2022/08/26 04:31:49;;;;;;;23.50;18.70;;;;;;;18.78;100.00;98741.19;105059;1271;73483;-71
2022/08/26 04:34:16;;;;;;;23.50;18.90;;;;;;;19.05;100.00;98742.29;105139;1271;60594;-70
2022/08/26 04:36:43;;;;;;;21.30;16.90;;;;;;;19.34;100.00;98741.27;105058;1271;61886;-71
2022/08/26 04:39:11;;;;;;;20.70;17.60;;;;;;;19.58;100.00;98739.52;104867;1273;72841;-72
2022/08/26 04:41:38;;;;;;;17.50;15.70;;;;;;;19.83;100.00;98734.98;105013;1271;70282;-71
2022/08/26 04:44:05;;;;;;;20.80;15.70;;;;;;;20.09;100.00;98735.77;105121;1271;73429;-72
2022/08/26 04:46:32;;;;;;;21.20;15.70;;;;;;;20.34;100.00;98732.06;105049;1271;61312;-73
2022/08/26 04:48:58;;;;;;;20.90;14.70;;;;;;;20.52;100.00;98733.84;104885;1270;60472;-71
2022/08/26 04:51:27;;;;;;;18.50;13.40;;;;;;;20.64;100.00;98731.48;105059;1271;60570;-72
2022/08/26 04:53:57;;;;;;;20.20;13.90;;;;;;;20.79;100.00;98729.75;105047;1271;69386;-71
2022/08/26 04:56:31;;;;;;;20.80;13.60;;;;;;;20.96;100.00;98729.31;104973;1271;73637;-71
2022/08/26 04:58:57;;;;;;;13.80;12.20;;;;;;;21.21;100.00;98728.43;105071;1271;61040;-70
2022/08/26 05:01:24;;;;;;;14.30;12.60;;;;;;;21.41;100.00;98728.77;105060;1271;60437;-71
2022/08/26 05:03:51;;;;;;;16.30;12.50;;;;;;;21.63;100.00;98725.56;105054;1271;60578;-71
2022/08/26 05:06:19;;;;;;;16.40;11.00;;;;;;;21.86;100.00;98723.83;105041;1271;60578;-72
2022/08/26 05:08:46;;;;;;;14.60;11.40;;;;;;;22.03;100.00;98723.31;105085;1271;73190;-72
2022/08/26 05:11:12;;;;;;;18.00;11.50;;;;;;;22.21;100.00;98724.95;104792;1274;60581;-71
2022/08/26 05:13:39;;;;;;;18.60;11.70;;;;;;;22.42;100.00;98723.36;104958;1271;60542;-71
2022/08/26 05:16:09;;;;;;;17.40;11.50;;;;;;;22.68;100.00;98725.38;104999;1271;60361;-71
2022/08/26 05:18:37;;;;;;;16.60;10.70;;;;;;;22.89;100.00;98730.66;105087;1271;70147;-72
2022/08/26 05:21:03;;;;;;;14.80;10.20;;;;;;;23.12;100.00;98734.24;105097;1271;74737;-72
2022/08/26 05:23:30;;;;;;;11.70;9.50;;;;;;;23.32;100.00;98738.80;105084;1271;60485;-71
2022/08/26 05:25:58;;;;;;;13.40;9.70;;;;;;;23.50;100.00;98736.77;104963;1271;62421;-71
2022/08/26 05:28:26;;;;;;;16.00;9.10;;;;;;;23.63;100.00;98737.89;104954;1270;74642;-71
2022/08/26 05:30:54;;;;;;;17.60;8.90;;;;;;;23.77;100.00;98738.35;104873;1271;69600;-70
2022/08/26 05:33:20;;;;;;;13.00;8.30;;;;;;;23.94;100.00;98737.78;105082;1271;73902;-71
2022/08/26 05:35:47;;;;;;;12.20;9.00;;;;;;;24.05;100.00;98736.42;104935;1271;60587;-71
2022/08/26 05:38:17;;;;;;;11.80;8.70;;;;;;;24.22;100.00;98737.45;105119;1271;60838;-70
2022/08/26 05:40:47;;;;;;;10.40;8.00;;;;;;;24.40;100.00;98737.20;105011;1271;73915;-71
2022/08/26 05:43:15;;;;;;;13.40;9.10;;;;;;;24.47;100.00;98739.86;105055;1270;69257;-71
2022/08/26 05:45:45;;;;;;;10.80;8.20;;;;;;;24.51;100.00;98740.27;105094;1270;74676;-72
2022/08/26 05:48:11;;;;;;;13.80;8.50;;;;;;;24.56;100.00;98739.91;105017;1271;60494;-72
2022/08/26 05:50:45;;;;;;;10.80;7.90;;;;;;;24.63;100.00;98734.84;104896;1272;60554;-72
2022/08/26 05:53:15;;;;;;;12.70;8.40;;;;;;;24.62;100.00;98733.45;105002;1271;74679;-71
2022/08/26 05:55:47;;;;;;;12.70;8.80;;;;;;;24.68;100.00;98734.88;105081;1271;69308;-72
2022/08/26 05:58:15;;;;;;;14.00;8.70;;;;;;;24.72;100.00;98731.59;105057;1270;73329;-72
2022/08/26 06:00:41;;;;;;;13.10;9.50;;;;;;;24.73;100.00;98733.83;105102;1270;60494;-70
2022/08/26 06:03:07;;;;;;;12.20;8.50;;;;;;;24.76;100.00;98732.04;104988;1271;60562;-71
2022/08/26 06:05:38;;;;;;;12.20;8.30;;;;;;;24.78;100.00;98728.98;104950;1271;74414;-71
2022/08/26 06:08:12;;;;;;;12.70;9.40;;;;;;;24.88;100.00;98727.63;105034;1271;69046;-72
2022/08/26 06:10:48;;;;;;;11.80;8.60;;;;;;;24.93;100.00;98728.52;104992;1270;73472;-72
2022/08/26 06:13:17;;;;;;;11.50;8.50;;;;;;;25.03;100.00;98724.14;105048;1270;60585;-72
2022/08/26 06:15:45;;;;;;;15.00;8.30;;;;;;;25.06;100.00;98728.80;104962;1270;61223;-70
2022/08/26 06:18:14;;;;;;;10.10;8.20;;;;;;;24.97;100.00;98724.98;105139;1270;75375;-72
2022/08/26 06:20:43;;;;;;;13.30;8.00;;;;;;;24.94;100.00;98727.02;103742;1270;1636954;-72
2022/08/26 06:25:56;;;;;;;12.00;7.20;;;;;;;24.91;100.00;98728.27;105054;1270;60519;-71
2022/08/26 06:28:23;;;;;;;12.50;8.20;;;;;;;24.88;100.00;98730.38;105090;1270;60384;-69
2022/08/26 06:30:50;;;;;;;14.00;8.30;;;;;;;24.92;100.00;98727.71;105060;1271;76094;-71
2022/08/26 06:33:17;;;;;;;16.70;8.10;;;;;;;24.91;100.00;98727.10;105059;1271;70542;-71
2022/08/26 06:35:45;;;;;;;11.70;7.80;;;;;;;24.91;100.00;98728.73;105074;1270;74381;-71
2022/08/26 06:38:12;;;;;;;10.40;6.90;;;;;;;24.81;100.00;98730.56;104926;1270;60472;-71
2022/08/26 06:40:42;;;;;;;11.10;7.20;;;;;;;24.72;100.00;98729.76;105145;1271;60883;-73
2022/08/26 06:43:09;;;;;;;9.40;7.10;;;;;;;24.63;100.00;98735.35;105157;1270;75016;-71
2022/08/26 06:45:37;;;;;;;9.80;7.20;;;;;;;24.53;100.00;98737.21;105061;1270;70474;-71
2022/08/26 06:48:05;;;;;;;8.80;7.80;;;;;;;24.42;100.00;98739.88;105006;1270;74496;-71
2022/08/26 06:50:32;;;;;;;10.10;8.00;;;;;;;24.19;100.00;98740.61;105071;1270;60455;-76
2022/08/26 06:52:59;;;;;;;10.60;7.30;;;;;;;23.99;100.00;98741.47;105132;1271;62209;-72
2022/08/26 06:55:25;;;;;;;9.80;7.60;;;;;;;23.89;100.00;98742.84;105100;1270;60559;-71
2022/08/26 06:57:51;;;;;;;10.90;7.70;;;;;;;23.76;100.00;98743.84;105030;1271;60460;-71
2022/08/26 07:00:18;;;;;;;11.10;7.90;;;;;;;23.69;100.00;98741.64;104862;1270;60377;-72
2022/08/26 07:02:44;;;;;;;11.70;7.20;;;;;;;23.65;100.00;98744.66;105039;1270;60513;-72
2022/08/26 07:05:10;;;;;;;11.40;7.40;;;;;;;23.65;100.00;98741.89;105103;1270;60616;-72
2022/08/26 07:07:37;;;;;;;11.10;8.20;;;;;;;23.63;100.00;98740.21;105064;1270;60361;-72
2022/08/26 07:10:07;;;;;;;11.10;7.50;;;;;;;23.55;100.00;98743.08;105073;1270;60406;-72
2022/08/26 07:12:34;;;;;;;;;;;;;;;23.53;100.00;98741.91;104974;1272;74368;-72
2022/08/26 07:15:01;;;;;;;12.30;7.00;;;;;;;23.54;100.00;98742.98;105041;1270;60467;-72
2022/08/26 07:17:28;;;;;;;12.10;7.20;;;;;;;23.61;100.00;98742.52;105104;1271;60452;-72
2022/08/26 07:19:53;;;;;;;11.90;7.50;;;;;;;23.66;100.00;98745.29;105077;1270;75822;-72
2022/08/26 07:22:20;;;;;;;9.80;7.50;;;;;;;23.59;100.00;98743.39;105068;1270;60508;-71
2022/08/26 07:24:46;;;;;;;12.10;7.50;;;;;;;23.52;100.00;98742.09;105101;1270;60476;-72
2022/08/26 07:27:14;;;;;;;10.90;7.80;;;;;;;23.48;100.00;98739.11;104879;1271;60664;-74
2022/08/26 07:29:44;;;;;;;10.30;7.40;;;;;;;23.42;100.00;98741.25;105092;1270;61816;-71
2022/08/26 07:32:13;;;;;;;14.40;9.60;;;;;;;23.36;100.00;98741.10;105118;1270;74570;-71
2022/08/26 07:34:40;;;;;;;15.10;8.30;;;;;;;23.33;100.00;98738.86;105068;1270;69324;-71
2022/08/26 07:37:08;;;;;;;12.10;7.90;;;;;;;23.31;100.00;98739.55;105099;1270;73322;-71
2022/08/26 07:39:34;;;;;;;12.90;7.80;;;;;;;23.36;100.00;98738.13;105021;1270;60528;-71
2022/08/26 07:42:02;;;;;;;11.40;8.30;;;;;;;23.48;100.00;98735.73;105058;1269;60492;-71
2022/08/26 07:44:30;;;;;;;10.50;8.10;;;;;;;23.63;100.00;98739.69;104880;1271;74741;-72
2022/08/26 07:46:58;;;;;;;13.40;8.30;;;;;;;23.71;100.00;98738.70;105072;1270;69207;-71
2022/08/26 07:49:25;;;;;;;12.80;8.00;;;;;;;23.74;100.00;98739.38;105024;1270;73752;-71
2022/08/26 07:51:59;;;;;;;13.50;7.70;;;;;;;23.79;100.00;98737.38;105051;1270;60498;-69
2022/08/26 07:54:28;;;;;;;12.40;8.40;;;;;;;23.76;100.00;98738.40;104931;1274;60570;-71
2022/08/26 07:56:55;;;;;;;11.50;7.80;;;;;;;23.79;100.00;98733.56;105102;1270;73922;-71
2022/08/26 07:59:22;;;;;;;14.40;8.20;;;;;;;23.86;100.00;98736.79;105082;1270;70448;-71
2022/08/26 08:01:48;;;;;;;14.20;7.40;;;;;;;23.97;100.00;98735.39;104934;1272;74688;-71
2022/08/26 08:04:16;;;;;;;16.20;7.80;;;;;;;24.06;100.00;98733.95;105072;1270;60575;-71
2022/08/26 08:06:43;;;;;;;13.40;7.10;;;;;;;24.16;100.00;98732.16;105095;1270;61090;-73
2022/08/26 08:09:11;;;;;;;11.70;7.20;;;;;;;24.24;100.00;98730.20;105068;1270;75124;-72
2022/08/26 08:11:37;;;;;;;10.10;7.10;;;;;;;24.30;100.00;98730.51;104906;1271;67671;-71
2022/08/26 08:14:04;;;;;;;9.70;6.70;;;;;;;24.38;100.00;98726.38;105058;1270;60491;-71
2022/08/26 08:16:29;;;;;;;8.20;6.40;;;;;;;24.44;100.00;98725.77;105132;1270;60670;-71
2022/08/26 08:18:55;;;;;;;10.80;7.10;;;;;;;24.48;100.00;98726.40;105040;1270;60505;-71
2022/08/26 08:21:24;;;;;;;11.80;6.80;;;;;;;24.52;100.00;98721.95;105094;1270;60504;-71
2022/08/26 08:23:52;;;;;;;9.90;6.30;;;;;;;24.53;100.00;98719.14;105110;1270;70402;-71
2022/08/26 08:26:19;;;;;;;7.50;6.20;;;;;;;24.52;100.00;98719.23;105080;1270;73411;-71
2022/08/26 08:28:45;;;;;;;10.30;7.20;;;;;;;24.57;100.00;98713.63;105078;1270;60585;-72
2022/08/26 08:31:23;;;;;;;8.90;6.20;;;;;;;24.63;100.00;98719.17;105069;1270;60444;-71
2022/08/26 08:33:48;;;;;;;11.30;6.00;;;;;;;24.71;100.00;98718.21;104864;1270;75725;-71
2022/08/26 08:36:15;;;;;;;8.40;6.50;;;;;;;24.80;100.00;98716.55;105067;1270;60469;-71
2022/08/26 08:38:43;;;;;;;11.30;6.40;;;;;;;24.89;100.00;98720.25;105121;1270;60495;-72
2022/08/26 08:41:34;;;;;;;10.20;6.50;;;;;;;24.96;100.00;98714.78;104952;1270;60556;-71
2022/08/26 08:44:01;;;;;;;9.50;5.70;;;;;;;25.01;100.00;98714.93;105085;1270;60871;-71
2022/08/26 08:46:30;;;;;;;13.90;6.00;;;;;;;25.02;100.00;98715.70;105055;1270;74764;-72
2022/08/26 08:48:58;;;;;;;15.60;6.60;;;;;;;25.03;100.00;98713.09;105095;1270;70495;-71
2022/08/26 08:52:09;;;;;;;11.50;6.50;;;;;;;25.08;100.00;98714.52;104885;1271;74476;-71
2022/08/26 08:54:35;;;;;;;12.30;6.00;;;;;;;25.15;100.00;98707.05;104557;1277;60518;-71
2022/08/26 08:57:10;;;;;;;13.90;6.00;;;;;;;25.18;100.00;98707.08;104511;1277;60686;-71
2022/08/26 08:59:49;;;;;;;9.10;5.70;;;;;;;25.28;100.00;98706.60;104508;1277;75761;-71
2022/08/26 09:02:29;;;;;;;7.00;5.20;;;;;;;25.44;100.00;98705.27;104494;1277;69842;-71
2022/08/26 09:05:10;;;;;;;10.30;5.50;;;;;;;25.48;100.00;98709.94;104478;1277;73607;-73
2022/08/26 09:08:08;;;;;;;12.00;6.20;;;;;;;25.53;100.00;98703.95;104560;1277;60491;-71
2022/08/26 09:10:42;;;;;;;12.90;5.40;;;;;;;25.59;100.00;98700.27;104494;1277;61877;-71
2022/08/26 09:13:16;;;;;;;11.30;6.20;;;;;;;25.62;100.00;98691.21;104277;1278;74896;-71
2022/08/26 09:16:09;;;;;;;11.00;5.90;;;;;;;25.70;100.00;98689.75;104422;1278;68739;-71
2022/08/26 09:18:54;;;;;;;9.30;6.10;;;;;;;25.77;100.00;98686.91;104586;1277;73638;-70
2022/08/26 09:21:23;;;;;;;12.00;6.80;;;;;;;25.85;100.00;98688.29;104495;1277;60627;-72
2022/08/26 09:23:50;;;;;;;16.00;6.90;;;;;;;25.93;100.00;98683.58;104589;1277;60554;-72
2022/08/26 09:26:48;;;;;;;13.00;6.30;;;;;;;26.05;100.00;98678.01;104542;1277;75619;-71
2022/08/26 09:29:26;;;;;;;11.50;6.00;;;;;;;26.19;100.00;98674.89;104506;1277;71307;-71
2022/08/26 09:32:22;;;;;;;9.50;5.80;;;;;;;26.30;100.00;98669.55;104813;1270;73332;-71
2022/08/26 09:35:02;;;;;;;11.00;5.90;;;;;;;26.38;100.00;98669.14;105124;1270;60581;-72
2022/08/26 09:37:34;;;;;;;11.50;5.40;;;;;;;26.40;100.00;98664.48;105059;1270;62089;-71
2022/08/26 09:40:31;;;;;;;9.20;5.20;;;;;;;26.42;100.00;98665.73;105027;1270;75489;-70
2022/08/26 09:43:14;;;;;;;13.80;5.60;;;;;;;26.39;100.00;98663.77;105089;1270;68755;-71
2022/08/26 09:45:44;;;;;;;10.20;5.10;;;;;;;26.45;100.00;98661.10;105088;1270;74463;-71
2022/08/26 09:48:10;;;;;;;11.40;5.10;;;;;;;26.53;100.00;98660.88;105162;1270;60462;-72
2022/08/26 09:50:50;;;;;;;7.00;5.00;;;;;;;26.58;100.00;98660.23;105005;1270;61651;-71
2022/08/26 09:53:20;;;;;;;8.90;5.20;;;;;;;26.62;100.00;98659.09;105025;1270;76006;-72
2022/08/26 09:55:48;;;;;;;8.80;4.70;;;;;;;26.69;100.00;98659.36;105141;1270;70534;-71
2022/08/26 09:58:32;;;;;;;7.40;4.80;;;;;;;26.78;100.00;98654.32;105089;1270;74742;-72
2022/08/26 10:01:03;;;;;;;12.80;5.70;;;;;;;26.89;100.00;98652.05;105132;1270;60574;-71
2022/08/26 10:03:32;;;;;;;9.10;5.00;;;;;;;27.00;100.00;98653.06;105139;1270;61129;-71
2022/08/26 10:06:21;;;;;;;9.30;5.10;;;;;;;27.00;100.00;98649.52;105153;1270;75349;-71
2022/08/26 10:08:57;;;;;;;10.60;4.90;;;;;;;27.09;100.00;98644.77;105107;1270;70394;-70
2022/08/26 10:11:52;;;;;;;8.80;4.70;;;;;;;27.15;100.00;98649.30;105102;1270;74469;-71
2022/08/26 10:14:45;;;;;;;9.50;5.00;;;;;;;27.16;100.00;98649.34;104878;1270;60659;-71
2022/08/26 10:17:25;;;;;;;10.50;5.00;;;;;;;27.26;100.00;98646.54;105075;1269;61085;-70
2022/08/26 10:20:05;;;;;;;8.00;5.40;;;;;;;27.32;100.00;98641.19;105105;1270;75522;-70
2022/08/26 10:22:58;;;;;;;10.10;5.20;;;;;;;27.41;100.00;98634.48;105123;1270;70386;-71
2022/08/26 10:25:42;;;;;;;9.40;5.40;;;;;;;27.51;100.00;98631.55;104868;1270;73794;-71
2022/08/26 10:28:22;;;;;;;9.00;5.10;;;;;;;27.54;100.00;98629.34;105388;1270;60421;-70
2022/08/26 10:31:02;;;;;;;7.30;4.90;;;;;;;27.62;100.00;98625.08;105067;1270;61767;-71
2022/08/26 10:33:28;;;;;;;12.90;6.30;;;;;;;27.73;100.00;98626.77;105126;1270;75597;-71
2022/08/26 10:35:58;;;;;;;6.80;5.20;;;;;;;27.76;100.00;98624.96;105134;1270;60456;-71
2022/08/26 10:38:39;;;;;;;11.50;6.10;;;;;;;27.82;100.00;98623.85;105118;1270;73351;-72
2022/08/26 10:41:17;;;;;;;6.60;5.00;;;;;;;27.83;100.00;98621.49;105089;1270;60535;-71
2022/08/26 10:43:59;;;;;;;7.70;4.50;;;;;;;27.90;100.00;98620.00;105102;1270;62316;-72
2022/08/26 10:46:31;;;;;;;8.60;4.70;;;;;;;27.93;100.00;98617.14;105118;1270;75799;-71
2022/08/26 10:49:05;;;;;;;7.80;5.40;;;;;;;27.95;100.00;98617.55;105149;1270;70226;-72
2022/08/26 10:51:37;;;;;;;9.50;5.10;;;;;;;28.00;100.00;98619.58;105114;1270;74509;-72
2022/08/26 10:54:12;;;;;;;8.70;4.70;;;;;;;28.01;100.00;98620.11;104792;1270;60585;-71
2022/08/26 10:57:15;;;;;;;6.00;4.50;;;;;;;28.07;100.00;98616.27;105034;1270;60959;-71
2022/08/26 10:59:48;;;;;;;7.90;4.90;;;;;;;28.13;100.00;98613.21;105100;1270;74883;-71
2022/08/26 11:02:39;;;;;;;7.30;4.80;;;;;;;28.19;100.00;98606.91;105109;1270;70249;-73
2022/08/26 11:05:16;;;;;;;8.60;5.00;;;;;;;28.28;100.00;98608.36;104916;1271;72927;-72
2022/08/26 11:07:45;;;;;;;8.90;4.80;;;;;;;28.39;100.00;98602.66;105167;1270;60552;-73
2022/08/26 11:10:16;;;;;;;8.70;5.20;;;;;;;28.47;98.60;98609.82;105190;1270;60897;-71
2022/08/26 11:12:46;;;;;;;9.80;5.90;;;;;;;28.44;96.57;98605.41;105135;1270;75318;-71
2022/08/26 11:15:12;;;;;;;9.70;4.90;;;;;;;28.43;96.66;98602.21;105136;1270;70597;-71
2022/08/26 11:17:43;;;;;;;7.80;4.40;;;;;;;28.44;96.59;98601.06;105176;1270;71495;-70
2022/08/26 11:20:29;;;;;;;7.20;5.30;;;;;;;28.48;95.04;98600.15;105100;1270;60587;-71
2022/08/26 11:23:21;;;;;;;8.60;4.90;;;;;;;28.50;92.60;98596.45;105030;1270;62416;-73
2022/08/26 11:25:55;;;;;;;7.70;5.10;;;;;;;28.56;92.31;98597.33;105106;1270;75580;-72
2022/08/26 11:28:32;;;;;;;8.80;5.40;;;;;;;28.59;93.74;98594.20;105110;1270;70268;-71